Time;durP1;ratioP1;P1;durP2;ratioP2;P2;SDS_P1;SDS_P2;PMS_P1;PMS_P2;Temp;Humidity;BMP_temperature;BMP_pressure;BME280_temperature;BME280_humidity;BME280_pressure;Samples;Min_cycle;Max_cycle;Signal;HPM_P1;HPM_P2
2023/05/13 00:02:12;;;;;;;5.10;4.67;;;9.20;99.90;;;;;;5036301;28;20466;-81
2023/05/13 00:04:39;;;;;;;6.80;6.27;;;9.10;99.90;;;;;;5043009;28;20441;-79
2023/05/13 00:07:06;;;;;;;4.40;4.00;;;9.20;99.90;;;;;;5036003;28;20859;-81
2023/05/13 00:09:33;;;;;;;5.20;4.50;;;9.10;99.90;;;;;;5046727;28;20506;-80
2023/05/13 00:12:02;;;;;;;4.33;3.93;;;9.10;99.90;;;;;;5040802;28;20850;-80
2023/05/13 00:14:29;;;;;;;5.17;4.77;;;9.20;99.90;;;;;;5042803;28;20473;-79
2023/05/13 00:16:57;;;;;;;4.27;3.97;;;9.20;99.90;;;;;;5043011;28;20821;-77
2023/05/13 00:19:24;;;;;;;3.90;3.60;;;9.10;99.90;;;;;;5044601;28;20455;-79
2023/05/13 00:21:51;;;;;;;4.83;4.43;;;9.10;99.90;;;;;;5043000;28;20461;-78
2023/05/13 00:24:19;;;;;;;5.30;4.80;;;9.10;99.90;;;;;;5041562;28;20457;-79
2023/05/13 00:26:46;;;;;;;3.77;3.47;;;9.10;99.90;;;;;;5044372;28;20859;-81
2023/05/13 00:29:14;;;;;;;3.97;3.77;;;9.10;99.90;;;;;;5037731;28;20461;-78
2023/05/13 00:31:41;;;;;;;4.37;4.07;;;9.10;99.90;;;;;;5045016;28;20441;-78
2023/05/13 00:34:08;;;;;;;4.13;3.83;;;9.10;99.90;;;;;;5042445;28;20512;-79
2023/05/13 00:36:35;;;;;;;4.77;4.37;;;9.10;99.90;;;;;;5038390;28;20566;-78
2023/05/13 00:39:02;;;;;;;4.23;3.80;;;9.10;99.90;;;;;;5043190;28;20992;-78
2023/05/13 00:41:29;;;;;;;3.67;3.37;;;9.10;99.90;;;;;;5034221;28;20441;-78
2023/05/13 00:43:56;;;;;;;4.30;3.90;;;9.10;99.90;;;;;;5043382;28;20473;-79
2023/05/13 00:46:25;;;;;;;3.50;3.20;;;9.00;99.90;;;;;;5040641;28;20530;-79
2023/05/13 00:48:52;;;;;;;5.23;3.60;;;9.00;99.90;;;;;;5044802;28;20461;-78
2023/05/13 00:51:19;;;;;;;3.33;3.10;;;9.00;99.90;;;;;;5033780;28;20495;-82
2023/05/13 00:53:47;;;;;;;2.60;2.40;;;9.00;99.90;;;;;;5029501;28;20465;-78
2023/05/13 00:56:14;;;;;;;3.37;3.17;;;9.00;99.90;;;;;;5044515;28;20476;-78
2023/05/13 00:58:41;;;;;;;3.23;3.03;;;9.00;99.90;;;;;;5040239;28;20498;-79
2023/05/13 01:01:17;;;;;;;3.07;2.87;;;9.00;99.90;;;;;;5037737;28;20466;-82
2023/05/13 01:04:00;;;;;;;2.63;2.43;;;9.00;99.90;;;;;;5036210;28;20457;-79
2023/05/13 01:06:36;;;;;;;3.27;3.07;;;9.00;99.90;;;;;;5033508;28;20932;-78
2023/05/13 01:09:10;;;;;;;4.60;3.00;;;8.90;99.90;;;;;;5037776;28;20957;-78
2023/05/13 01:11:41;;;;;;;4.10;2.90;;;8.90;99.90;;;;;;5039722;28;20456;-78
2023/05/13 01:14:12;;;;;;;2.97;2.77;;;8.90;99.90;;;;;;5046365;28;20456;-80
2023/05/13 01:16:41;;;;;;;2.77;2.57;;;8.90;99.90;;;;;;5046191;28;20975;-78
2023/05/13 01:19:26;;;;;;;2.97;2.77;;;8.90;99.90;;;;;;5043453;28;20513;-79
2023/05/13 01:21:54;;;;;;;4.47;4.07;;;8.90;99.90;;;;;;5042876;28;20453;-78
2023/05/13 01:24:21;;;;;;;3.73;3.43;;;8.90;99.90;;;;;;5046902;28;20531;-78
2023/05/13 01:26:49;;;;;;;3.37;3.17;;;8.90;99.90;;;;;;5046475;28;20437;-78
2023/05/13 01:29:16;;;;;;;2.50;2.40;;;8.90;99.90;;;;;;5041210;28;20954;-80
2023/05/13 01:31:43;;;;;;;3.87;3.57;;;8.90;99.90;;;;;;5037213;28;20446;-78
2023/05/13 01:34:13;;;;;;;3.63;2.90;;;9.00;99.90;;;;;;5036228;28;20520;-78
2023/05/13 01:36:40;;;;;;;2.97;2.67;;;9.00;99.90;;;;;;5037632;28;20615;-81
2023/05/13 01:39:08;;;;;;;3.50;2.97;;;8.90;99.90;;;;;;5046150;28;20858;-78
2023/05/13 01:41:35;;;;;;;4.57;4.27;;;8.90;99.90;;;;;;5043266;28;20457;-77
2023/05/13 01:44:02;;;;;;;3.43;3.23;;;8.90;99.90;;;;;;5038080;28;20470;-79
2023/05/13 01:46:30;;;;;;;5.07;4.67;;;8.90;99.90;;;;;;5042449;28;20989;-80
2023/05/13 01:48:57;;;;;;;4.10;3.80;;;8.90;99.90;;;;;;5044120;28;20488;-81
2023/05/13 01:51:24;;;;;;;4.67;4.23;;;9.00;99.90;;;;;;5040521;28;20480;-79
2023/05/13 01:53:51;;;;;;;4.50;4.17;;;9.00;99.90;;;;;;5045313;28;20454;-79
2023/05/13 01:56:20;;;;;;;4.57;4.17;;;8.90;99.90;;;;;;5051797;28;20481;-78
2023/05/13 01:58:48;;;;;;;3.70;3.20;;;8.90;99.90;;;;;;5053594;28;20454;-79
2023/05/13 02:01:14;;;;;;;4.60;4.17;;;8.90;99.90;;;;;;5050090;28;20464;-78
2023/05/13 02:03:41;;;;;;;3.17;2.93;;;8.90;99.90;;;;;;5043096;28;20503;-79
2023/05/13 02:06:08;;;;;;;4.43;4.03;;;8.90;99.90;;;;;;5042201;28;20469;-79
2023/05/13 02:08:37;;;;;;;3.90;3.60;;;8.90;99.90;;;;;;5044714;28;20499;-78
2023/05/13 02:11:04;;;;;;;4.10;3.77;;;8.90;99.90;;;;;;5045792;28;20441;-82
2023/05/13 02:13:32;;;;;;;4.50;4.20;;;8.90;99.90;;;;;;5035505;28;20918;-79
2023/05/13 02:15:59;;;;;;;3.10;2.90;;;8.90;99.90;;;;;;5044585;28;20844;-79
2023/05/13 02:18:26;;;;;;;3.10;2.80;;;8.90;99.90;;;;;;5049818;28;20472;-80
2023/05/13 02:20:53;;;;;;;4.60;4.20;;;8.90;99.90;;;;;;5038878;28;20465;-79
2023/05/13 02:23:20;;;;;;;5.13;4.73;;;8.90;99.90;;;;;;5047666;28;20440;-79
2023/05/13 02:25:47;;;;;;;4.67;4.20;;;8.90;99.90;;;;;;5045235;28;20437;-80
2023/05/13 02:28:14;;;;;;;4.50;4.10;;;8.90;99.90;;;;;;5047155;28;20460;-79
2023/05/13 02:30:43;;;;;;;4.60;4.30;;;8.90;99.90;;;;;;5044119;28;20984;-79
2023/05/13 02:33:09;;;;;;;4.73;4.00;;;8.90;99.90;;;;;;5047756;28;20448;-79
2023/05/13 02:35:37;;;;;;;6.70;3.63;;;9.00;99.90;;;;;;5045405;28;20465;-78
2023/05/13 02:38:04;;;;;;;3.93;3.63;;;9.00;99.90;;;;;;5047181;28;20441;-79
2023/05/13 02:40:30;;;;;;;4.80;4.40;;;9.00;99.90;;;;;;5043673;28;20849;-79
2023/05/13 02:42:57;;;;;;;4.00;3.20;;;9.00;99.90;;;;;;5048032;28;21212;-79
2023/05/13 02:45:25;;;;;;;4.03;3.73;;;9.00;99.90;;;;;;5033996;28;20520;-81
2023/05/13 02:47:53;;;;;;;3.30;2.87;;;9.00;99.90;;;;;;5038329;28;21108;-79
2023/05/13 02:50:20;;;;;;;6.00;3.87;;;9.00;99.90;;;;;;5041951;28;20511;-78
2023/05/13 02:52:47;;;;;;;3.53;3.27;;;9.00;99.90;;;;;;5046666;28;20468;-79
2023/05/13 02:55:14;;;;;;;5.23;4.33;;;9.10;99.90;;;;;;5045094;28;20450;-78
2023/05/13 02:57:42;;;;;;;3.60;3.40;;;9.10;99.90;;;;;;5044246;28;20956;-77
2023/05/13 03:00:10;;;;;;;5.23;4.80;;;9.10;99.90;;;;;;5035312;28;20446;-78
2023/05/13 03:02:37;;;;;;;4.73;4.37;;;9.10;99.90;;;;;;5047092;28;20848;-78
2023/05/13 03:05:07;;;;;;;3.87;3.47;;;9.00;99.90;;;;;;5039853;28;20974;-79
2023/05/13 03:07:34;;;;;;;4.20;3.80;;;9.10;99.90;;;;;;5049175;28;20446;-79
2023/05/13 03:10:01;;;;;;;4.50;4.10;;;9.10;99.90;;;;;;5039287;28;20811;-78
2023/05/13 03:12:29;;;;;;;5.73;5.23;;;9.10;99.90;;;;;;5036824;28;20867;-78
2023/05/13 03:14:55;;;;;;;4.20;3.77;;;9.00;99.90;;;;;;5033897;28;20835;-78
2023/05/13 03:17:23;;;;;;;3.40;3.10;;;9.10;99.90;;;;;;5033387;28;20477;-79
2023/05/13 03:19:50;;;;;;;4.23;3.90;;;9.00;99.90;;;;;;5038906;28;20944;-78
2023/05/13 03:22:19;;;;;;;3.83;3.20;;;9.00;99.90;;;;;;5043511;28;20445;-78
2023/05/13 03:24:46;;;;;;;4.73;4.33;;;9.00;99.90;;;;;;5042031;28;20492;-78
2023/05/13 03:27:13;;;;;;;4.80;4.40;;;9.00;99.90;;;;;;5042542;28;20948;-79
2023/05/13 03:29:40;;;;;;;4.00;3.70;;;9.00;99.90;;;;;;5042963;28;20462;-79
2023/05/13 03:32:07;;;;;;;4.27;3.97;;;9.00;99.90;;;;;;5044391;28;20499;-78
2023/05/13 03:34:36;;;;;;;3.67;3.37;;;9.00;99.90;;;;;;5046293;28;20445;-79
2023/05/13 03:37:03;;;;;;;3.47;3.17;;;9.00;99.90;;;;;;5047490;28;20825;-78
2023/05/13 03:39:31;;;;;;;4.00;3.70;;;9.00;99.90;;;;;;5039275;28;20446;-80
2023/05/13 03:41:58;;;;;;;4.27;3.90;;;9.10;99.90;;;;;;5043128;28;20468;-79
2023/05/13 03:44:25;;;;;;;4.90;4.50;;;9.10;99.90;;;;;;5047573;28;20465;-78
2023/05/13 03:46:52;;;;;;;4.37;3.73;;;9.10;99.90;;;;;;5044249;28;20515;-78
2023/05/13 03:49:19;;;;;;;4.63;3.87;;;9.10;99.90;;;;;;5037364;28;20450;-78
2023/05/13 03:51:46;;;;;;;5.20;3.60;;;9.10;99.90;;;;;;5038913;28;21151;-79
2023/05/13 03:54:13;;;;;;;4.60;4.30;;;9.10;99.90;;;;;;5043201;28;20543;-78
2023/05/13 03:56:41;;;;;;;6.40;4.53;;;9.20;99.90;;;;;;5038042;28;20675;-78
2023/05/13 03:59:08;;;;;;;3.77;3.47;;;9.20;99.90;;;;;;5042208;28;20461;-81
2023/05/13 04:01:36;;;;;;;3.30;3.00;;;9.20;99.90;;;;;;5046839;28;20526;-82
2023/05/13 04:04:03;;;;;;;4.03;3.73;;;9.20;99.90;;;;;;5047298;28;20440;-78
2023/05/13 04:06:30;;;;;;;3.47;3.20;;;9.20;99.90;;;;;;5034798;28;20445;-78
2023/05/13 04:08:57;;;;;;;4.07;3.67;;;9.20;99.90;;;;;;5042475;28;20538;-80
2023/05/13 04:11:24;;;;;;;3.87;3.57;;;9.20;99.90;;;;;;5036295;28;20445;-80
2023/05/13 04:13:53;;;;;;;2.97;2.77;;;9.30;99.90;;;;;;5034167;28;20469;-80
2023/05/13 04:16:20;;;;;;;3.17;2.87;;;9.30;99.90;;;;;;5038903;28;20489;-80
2023/05/13 04:18:47;;;;;;;2.80;2.60;;;9.30;99.90;;;;;;5041417;28;20457;-80
2023/05/13 04:21:14;;;;;;;3.57;3.30;;;9.40;99.90;;;;;;5045847;28;20445;-79
2023/05/13 04:23:41;;;;;;;4.13;3.60;;;9.40;99.90;;;;;;5035567;28;20465;-79
2023/05/13 04:26:08;;;;;;;3.00;2.40;;;9.40;99.90;;;;;;5043878;28;20939;-78
2023/05/13 04:28:36;;;;;;;3.10;2.90;;;9.40;99.90;;;;;;5037475;28;20542;-80
2023/05/13 04:31:04;;;;;;;3.47;3.17;;;9.40;99.90;;;;;;5044401;28;20493;-79
2023/05/13 04:33:32;;;;;;;2.90;2.70;;;9.40;99.90;;;;;;5041088;28;20458;-77
2023/05/13 04:35:59;;;;;;;5.63;2.63;;;9.50;99.90;;;;;;5045894;28;20464;-78
2023/05/13 04:38:26;;;;;;;3.40;3.10;;;9.50;99.90;;;;;;5043946;28;20447;-79
2023/05/13 04:40:53;;;;;;;2.27;2.07;;;9.50;99.90;;;;;;5030657;28;20500;-78
2023/05/13 04:43:21;;;;;;;1.93;1.83;;;9.50;99.90;;;;;;5035273;28;20464;-78
2023/05/13 04:45:48;;;;;;;3.27;2.73;;;9.40;99.90;;;;;;5036730;28;20449;-78
2023/05/13 04:48:17;;;;;;;2.13;2.03;;;9.50;99.90;;;;;;5043881;28;20471;-80
2023/05/13 04:50:49;;;;;;;2.07;1.97;;;9.50;99.90;;;;;;5044291;28;20829;-76
2023/05/13 04:53:16;;;;;;;4.30;2.53;;;9.60;99.90;;;;;;5047599;28;20964;-84
2023/05/13 04:55:43;;;;;;;2.80;2.60;;;9.60;99.90;;;;;;5040983;28;20465;-78
2023/05/13 04:58:09;;;;;;;5.13;2.07;;;9.70;99.90;;;;;;5042602;28;20542;-78
2023/05/13 05:00:36;;;;;;;1.97;1.87;;;9.70;99.90;;;;;;5032270;28;20471;-77
2023/05/13 05:03:03;;;;;;;3.00;2.27;;;9.70;99.90;;;;;;5042449;28;20554;-78
2023/05/13 05:05:32;;;;;;;1.87;1.70;;;9.70;99.90;;;;;;5044130;28;20441;-78
2023/05/13 05:07:59;;;;;;;1.93;1.83;;;9.70;99.90;;;;;;5042209;28;20461;-77
2023/05/13 05:10:26;;;;;;;1.80;1.70;;;9.80;99.90;;;;;;5039430;28;20454;-81
2023/05/13 05:12:53;;;;;;;1.93;1.83;;;9.90;99.90;;;;;;5031836;28;20849;-80
2023/05/13 05:15:20;;;;;;;2.77;2.53;;;9.90;99.90;;;;;;5042518;28;20458;-78
2023/05/13 05:17:47;;;;;;;2.60;2.40;;;9.90;99.90;;;;;;5056510;28;20509;-78
2023/05/13 05:20:14;;;;;;;2.07;1.97;;;9.90;99.90;;;;;;5052030;28;20462;-78
2023/05/13 05:22:42;;;;;;;2.20;2.10;;;9.90;99.90;;;;;;5043423;28;20873;-79
2023/05/13 05:25:10;;;;;;;3.47;3.27;;;9.90;99.90;;;;;;5038371;28;20526;-77
2023/05/13 05:27:37;;;;;;;2.33;2.00;;;9.90;99.90;;;;;;5038181;28;20445;-79
2023/05/13 05:30:05;;;;;;;4.83;2.90;;;9.90;99.90;;;;;;5043990;28;20449;-83
2023/05/13 05:32:33;;;;;;;2.43;2.10;;;9.80;99.90;;;;;;5035614;28;20460;-77
2023/05/13 05:35:01;;;;;;;2.13;1.93;;;9.90;99.90;;;;;;5037675;28;20524;-79
2023/05/13 05:37:28;;;;;;;2.47;2.33;;;9.90;99.90;;;;;;5025598;28;20474;-80
2023/05/13 05:39:56;;;;;;;2.33;2.17;;;9.90;99.90;;;;;;5040595;28;20485;-77
2023/05/13 05:42:23;;;;;;;2.83;2.57;;;10.00;99.90;;;;;;5041952;28;20809;-76
2023/05/13 05:44:50;;;;;;;2.10;2.00;;;10.00;99.90;;;;;;5040967;28;20468;-81
2023/05/13 05:47:17;;;;;;;3.53;3.23;;;10.00;99.90;;;;;;5039250;28;21124;-86
2023/05/13 05:49:45;;;;;;;3.20;2.90;;;10.00;99.90;;;;;;5043796;28;20780;-83
2023/05/13 05:52:12;;;;;;;3.23;2.67;;;10.10;99.90;;;;;;5043607;28;20795;-79
2023/05/13 05:54:39;;;;;;;3.27;3.07;;;10.10;99.90;;;;;;5042552;28;20461;-77
2023/05/13 05:57:07;;;;;;;3.50;2.50;;;10.20;99.90;;;;;;5040738;28;20551;-78
2023/05/13 05:59:34;;;;;;;3.23;2.93;;;10.20;99.90;;;;;;5030062;28;20453;-78
2023/05/13 06:02:01;;;;;;;2.80;2.70;;;10.30;99.90;;;;;;5045635;28;20924;-76
2023/05/13 06:04:28;;;;;;;2.10;1.73;;;10.30;99.90;;;;;;5046510;28;20587;-79
2023/05/13 06:06:55;;;;;;;3.70;3.40;;;10.50;99.90;;;;;;5045591;28;20449;-78
2023/05/13 06:09:22;;;;;;;2.60;2.40;;;10.70;99.90;;;;;;5041508;28;20460;-77
2023/05/13 06:11:49;;;;;;;2.57;2.37;;;10.70;99.90;;;;;;5035250;28;20446;-77
2023/05/13 06:14:17;;;;;;;2.60;2.40;;;10.70;99.90;;;;;;5043492;28;20457;-80
2023/05/13 06:16:45;;;;;;;2.13;2.03;;;10.70;99.90;;;;;;5042245;28;20453;-77
2023/05/13 06:19:12;;;;;;;1.80;1.70;;;10.70;99.90;;;;;;5045410;28;20988;-78
2023/05/13 06:21:41;;;;;;;2.33;2.23;;;10.70;99.90;;;;;;5047366;28;20464;-77
2023/05/13 06:24:09;;;;;;;7.63;2.33;;;10.70;99.90;;;;;;5040870;28;20484;-80
2023/05/13 06:26:36;;;;;;;2.20;2.10;;;10.80;99.90;;;;;;5041115;28;20500;-77
2023/05/13 06:29:03;;;;;;;2.10;1.90;;;10.80;99.90;;;;;;5047925;28;20469;-78
2023/05/13 06:31:31;;;;;;;2.70;2.50;;;10.90;99.90;;;;;;5040449;28;20469;-78
2023/05/13 06:33:58;;;;;;;1.73;1.53;;;11.00;99.90;;;;;;5037119;28;20442;-79
2023/05/13 06:36:26;;;;;;;2.07;1.87;;;11.00;99.90;;;;;;5032372;28;20466;-78
2023/05/13 06:38:54;;;;;;;2.90;1.97;;;11.00;99.90;;;;;;5039853;28;20485;-78
2023/05/13 06:41:21;;;;;;;2.27;2.07;;;11.10;99.90;;;;;;5036313;28;20465;-77
2023/05/13 06:43:48;;;;;;;2.93;1.60;;;11.10;99.90;;;;;;5028704;28;20492;-80
2023/05/13 06:46:15;;;;;;;1.53;1.43;;;11.20;99.90;;;;;;5044227;28;20456;-78
2023/05/13 06:48:43;;;;;;;1.67;1.37;;;11.30;99.90;;;;;;5039817;28;20462;-78
2023/05/13 06:51:10;;;;;;;3.50;1.57;;;11.30;99.90;;;;;;5035670;28;21144;-78
2023/05/13 06:53:37;;;;;;;1.43;1.10;;;11.40;99.90;;;;;;5034918;28;20546;-77
2023/05/13 06:56:04;;;;;;;2.93;2.20;;;11.50;99.90;;;;;;5032370;28;20441;-81
2023/05/13 06:58:31;;;;;;;1.10;1.00;;;11.50;99.90;;;;;;5047694;28;20476;-77
2023/05/13 07:00:58;;;;;;;1.90;1.80;;;11.60;99.90;;;;;;5039956;28;20453;-78
2023/05/13 07:03:25;;;;;;;1.40;1.30;;;11.70;99.90;;;;;;5036774;28;20450;-79
2023/05/13 07:05:54;;;;;;;2.60;2.17;;;11.70;99.90;;;;;;5035517;28;20516;-78
2023/05/13 07:08:21;;;;;;;1.70;1.60;;;11.70;99.90;;;;;;5044793;28;21174;-76
2023/05/13 07:10:48;;;;;;;1.80;1.67;;;11.80;99.90;;;;;;5034790;28;20502;-78
2023/05/13 07:13:16;;;;;;;1.60;1.50;;;12.00;99.90;;;;;;5042136;28;20454;-78
2023/05/13 07:15:43;;;;;;;2.37;2.27;;;12.00;99.90;;;;;;5036772;28;20438;-77
2023/05/13 07:18:10;;;;;;;2.60;2.40;;;12.10;99.90;;;;;;5045083;28;20489;-79
2023/05/13 07:20:37;;;;;;;1.30;1.13;;;12.00;99.90;;;;;;5044603;28;21148;-78
2023/05/13 07:23:06;;;;;;;1.73;1.63;;;12.20;99.90;;;;;;5036311;28;20495;-78
2023/05/13 07:25:33;;;;;;;2.23;2.07;;;12.10;99.90;;;;;;5042446;28;20531;-79
2023/05/13 07:28:00;;;;;;;2.03;1.87;;;12.20;99.90;;;;;;5042777;28;20461;-77
2023/05/13 07:30:27;;;;;;;2.80;2.60;;;12.20;99.90;;;;;;5040849;28;20458;-78
2023/05/13 07:32:53;;;;;;;1.93;1.80;;;12.20;99.90;;;;;;5032337;28;20453;-77
2023/05/13 07:35:20;;;;;;;1.83;1.73;;;12.20;99.90;;;;;;5031777;28;20454;-77
2023/05/13 07:37:47;;;;;;;1.97;1.87;;;12.20;99.90;;;;;;5036257;28;20889;-77
2023/05/13 07:40:16;;;;;;;1.70;1.60;;;12.10;99.90;;;;;;5031145;28;20454;-80
2023/05/13 07:42:43;;;;;;;1.90;1.80;;;12.20;99.90;;;;;;5036437;28;20473;-80
2023/05/13 07:45:11;;;;;;;1.80;1.70;;;12.30;99.90;;;;;;5039955;28;20515;-77
2023/05/13 07:47:38;;;;;;;1.40;1.30;;;12.50;99.90;;;;;;5045513;28;20445;-78
2023/05/13 07:50:06;;;;;;;1.63;1.53;;;12.70;99.90;;;;;;5041640;28;20483;-79
2023/05/13 07:52:33;;;;;;;7.77;2.10;;;12.80;99.90;;;;;;5038670;28;20495;-79
2023/05/13 07:55:00;;;;;;;1.13;1.07;;;12.90;99.90;;;;;;5027616;28;20450;-80
2023/05/13 07:57:28;;;;;;;1.73;1.00;;;13.20;99.90;;;;;;5043015;28;20481;-79
2023/05/13 07:59:55;;;;;;;1.33;1.23;;;13.30;99.90;;;;;;5039157;28;20894;-77
2023/05/13 08:02:23;;;;;;;1.77;1.67;;;13.40;99.90;;;;;;5047316;28;20457;-78
2023/05/13 08:04:50;;;;;;;1.50;1.40;;;13.60;99.90;;;;;;5046042;28;20797;-77
2023/05/13 08:07:17;;;;;;;1.47;1.37;;;13.60;99.90;;;;;;5048618;28;20445;-78
2023/05/13 08:09:44;;;;;;;1.50;1.37;;;13.80;99.90;;;;;;5047654;28;20522;-78
2023/05/13 08:12:11;;;;;;;2.23;1.43;;;13.90;99.90;;;;;;5048761;28;20515;-79
2023/05/13 08:14:40;;;;;;;1.60;1.40;;;14.00;99.90;;;;;;5046193;28;20540;-82
2023/05/13 08:17:07;;;;;;;1.00;1.00;;;14.10;99.90;;;;;;5046286;28;20438;-84
2023/05/13 08:19:35;;;;;;;1.07;1.07;;;14.30;99.90;;;;;;5040320;28;20521;-78
2023/05/13 08:22:02;;;;;;;1.17;1.07;;;14.30;99.90;;;;;;5045437;28;20816;-80
2023/05/13 08:24:29;;;;;;;1.60;1.50;;;14.40;99.90;;;;;;5034805;28;20499;-78
2023/05/13 08:26:56;;;;;;;1.50;1.40;;;14.50;99.90;;;;;;5039534;28;20442;-79
2023/05/13 08:29:23;;;;;;;1.97;1.87;;;14.70;99.90;;;;;;5049324;28;20997;-77
2023/05/13 08:31:52;;;;;;;2.30;2.10;;;14.30;99.90;;;;;;5045794;28;20437;-77
2023/05/13 08:34:19;;;;;;;1.77;1.67;;;14.00;99.90;;;;;;5053334;28;20443;-79
2023/05/13 08:36:46;;;;;;;1.73;1.63;;;14.10;99.90;;;;;;5060405;28;20461;-77
2023/05/13 08:39:13;;;;;;;2.03;1.93;;;14.40;99.90;;;;;;5066377;28;20507;-77
2023/05/13 08:41:41;;;;;;;2.10;2.00;;;15.00;99.90;;;;;;5056368;28;20869;-76
2023/05/13 08:44:12;;;;;;;2.20;2.10;;;15.40;99.90;;;;;;5048839;28;20473;-78
2023/05/13 08:46:40;;;;;;;2.53;2.33;;;16.30;99.90;;;;;;5050074;28;20444;-82
2023/05/13 08:49:09;;;;;;;2.93;2.63;;;16.90;99.90;;;;;;5047811;28;20989;-78
2023/05/13 08:51:37;;;;;;;2.23;2.03;;;17.00;99.90;;;;;;5048207;28;20887;-78
2023/05/13 08:54:05;;;;;;;2.20;2.10;;;17.30;99.90;;;;;;5044552;28;20993;-78
2023/05/13 08:56:32;;;;;;;3.23;1.80;;;17.40;99.90;;;;;;5044657;28;20461;-78
2023/05/13 08:58:59;;;;;;;2.80;2.60;;;17.30;99.90;;;;;;5048274;28;20500;-78
2023/05/13 09:01:26;;;;;;;3.10;2.80;;;16.60;99.90;;;;;;5048874;28;20488;-78
2023/05/13 09:03:58;;;;;;;2.90;2.70;;;17.10;99.90;;;;;;5041148;28;20459;-82
2023/05/13 09:06:27;;;;;;;2.73;2.50;;;17.50;99.90;;;;;;5051710;28;20511;-78
2023/05/13 09:08:55;;;;;;;2.50;2.30;;;17.30;99.90;;;;;;5044939;28;20472;-78
2023/05/13 09:11:22;;;;;;;2.77;2.57;;;17.60;99.90;;;;;;5046298;28;20510;-78
2023/05/13 09:13:57;;;;;;;3.03;2.83;;;18.00;99.90;;;;;;5045435;28;20462;-78
2023/05/13 09:16:25;;;;;;;3.10;2.90;;;17.30;99.90;;;;;;5039533;28;20473;-79
2023/05/13 09:18:57;;;;;;;3.37;3.17;;;16.40;99.90;;;;;;5033299;28;20485;-81
2023/05/13 09:21:25;;;;;;;4.57;4.27;;;15.90;99.90;;;;;;5043450;28;21268;-77
2023/05/13 09:24:05;;;;;;;4.20;3.90;;;15.70;99.90;;;;;;5041041;28;20465;-78
2023/05/13 09:26:33;;;;;;;4.87;4.47;;;15.30;99.90;;;;;;5038560;28;20465;-78
2023/05/13 09:29:23;;;;;;;3.80;3.50;;;15.90;99.90;;;;;;5041342;28;20514;-80
2023/05/13 09:31:52;;;;;;;3.63;3.43;;;16.60;99.90;;;;;;5044623;28;20508;-78
2023/05/13 09:34:27;;;;;;;4.40;3.67;;;17.00;99.90;;;;;;5043469;28;20443;-78
2023/05/13 09:36:59;;;;;;;4.30;4.00;;;17.20;99.90;;;;;;5039440;28;20508;-79
2023/05/13 09:39:28;;;;;;;3.43;3.17;;;17.10;99.90;;;;;;5047920;28;20602;-78
2023/05/13 09:41:55;;;;;;;5.03;4.30;;;17.30;99.90;;;;;;5030926;28;20466;-78
2023/05/13 09:44:22;;;;;;;4.20;3.90;;;17.40;99.90;;;;;;5044967;28;20482;-80
2023/05/13 09:46:52;;;;;;;4.40;4.10;;;17.50;99.90;;;;;;5033702;28;20946;-81
2023/05/13 09:49:21;;;;;;;4.97;4.50;;;17.10;99.90;;;;;;5039342;28;20449;-78
2023/05/13 09:51:48;;;;;;;3.13;2.93;;;17.40;99.90;;;;;;5041556;28;20518;-77
2023/05/13 09:54:16;;;;;;;3.47;3.27;;;17.60;99.90;;;;;;5041262;28;20465;-81
2023/05/13 09:56:44;;;;;;;4.93;4.00;;;18.10;99.90;;;;;;5036073;28;20532;-79
2023/05/13 09:59:11;;;;;;;3.83;3.57;;;17.30;99.90;;;;;;5039203;28;20474;-81
2023/05/13 10:01:40;;;;;;;4.03;3.63;;;17.10;99.90;;;;;;5043729;28;20459;-78
2023/05/13 10:04:07;;;;;;;4.07;3.73;;;16.90;99.90;;;;;;5043868;28;20547;-78
2023/05/13 10:06:35;;;;;;;5.07;4.67;;;17.00;99.90;;;;;;5044447;28;20541;-81
2023/05/13 10:09:03;;;;;;;4.60;4.20;;;16.60;99.90;;;;;;5044773;28;20460;-81
2023/05/13 10:11:33;;;;;;;5.43;4.93;;;16.00;99.90;;;;;;5036153;28;21042;-80
2023/05/13 10:14:04;;;;;;;4.50;4.10;;;16.10;99.90;;;;;;5029408;28;20461;-80
2023/05/13 10:16:32;;;;;;;4.73;4.40;;;16.00;99.90;;;;;;5040059;28;20519;-77
2023/05/13 10:19:00;;;;;;;4.27;3.97;;;16.20;99.90;;;;;;5041530;28;20546;-78
2023/05/13 10:21:28;;;;;;;5.60;5.10;;;16.00;99.90;;;;;;5040777;28;20462;-80
2023/05/13 10:23:56;;;;;;;5.63;5.23;;;16.00;99.90;;;;;;5032865;28;20457;-79
2023/05/13 10:26:23;;;;;;;4.60;4.20;;;16.20;99.90;;;;;;5043726;28;21106;-78
2023/05/13 10:28:51;;;;;;;4.27;4.00;;;16.10;99.90;;;;;;5032775;28;20459;-81
2023/05/13 10:31:19;;;;;;;4.70;4.30;;;16.60;99.90;;;;;;5031925;28;20458;-78
2023/05/13 10:33:47;;;;;;;5.50;5.10;;;16.80;99.90;;;;;;5039175;28;20461;-78
2023/05/13 10:36:28;;;;;;;6.67;6.20;;;16.90;99.90;;;;;;5043166;28;21073;-78
2023/05/13 10:39:18;;;;;;;6.97;6.40;;;16.60;99.90;;;;;;5044421;28;20530;-81
2023/05/13 10:42:20;;;;;;;8.03;7.33;;;16.50;99.90;;;;;;5042591;28;20461;-78
2023/05/13 10:44:52;;;;;;;6.63;5.93;;;17.10;99.90;;;;;;5039894;28;20535;-80
2023/05/13 10:47:20;;;;;;;5.60;5.20;;;17.10;99.90;;;;;;5039654;28;20440;-78
2023/05/13 10:49:51;;;;;;;6.90;5.60;;;16.80;99.90;;;;;;5047480;28;20470;-78
2023/05/13 10:52:19;;;;;;;5.57;5.17;;;16.70;99.90;;;;;;5038756;28;20567;-78
2023/05/13 10:55:01;;;;;;;7.80;6.20;;;16.60;99.90;;;;;;5046879;28;20465;-77
2023/05/13 10:57:29;;;;;;;6.33;5.80;;;16.70;99.90;;;;;;5040511;28;21228;-79
2023/05/13 11:00:15;;;;;;;6.73;6.23;;;16.70;99.90;;;;;;5044273;28;20848;-81
2023/05/13 11:02:43;;;;;;;7.03;6.43;;;16.90;99.90;;;;;;5050804;28;20538;-78
2023/05/13 11:05:19;;;;;;;7.30;6.70;;;16.40;99.90;;;;;;5047603;28;20458;-78
2023/05/13 11:07:56;;;;;;;6.23;5.73;;;16.50;99.90;;;;;;5051627;28;20462;-78
2023/05/13 11:10:28;;;;;;;5.83;5.40;;;16.70;99.90;;;;;;5044263;28;20473;-80
2023/05/13 11:13:25;;;;;;;8.50;7.70;;;16.90;99.90;;;;;;5045783;28;20464;-77
2023/05/13 11:15:53;;;;;;;7.30;6.67;;;17.40;99.90;;;;;;5043316;28;20941;-78
2023/05/13 11:18:30;;;;;;;7.60;6.23;;;17.50;99.90;;;;;;5045757;28;20456;-78
2023/05/13 11:21:03;;;;;;;6.83;6.23;;;17.70;99.90;;;;;;5045552;28;20463;-81
2023/05/13 11:23:32;;;;;;;13.70;8.53;;;18.10;99.90;;;;;;5036829;28;20455;-77
2023/05/13 11:26:11;;;;;;;7.37;6.70;;;18.20;99.90;;;;;;5042667;28;20456;-78
2023/05/13 11:28:54;;;;;;;6.90;6.30;;;18.10;99.90;;;;;;5039374;28;20467;-80
2023/05/13 11:31:22;;;;;;;7.57;6.87;;;18.00;99.90;;;;;;5047424;28;20458;-82
2023/05/13 11:34:13;;;;;;;8.80;7.40;;;18.00;99.90;;;;;;5052137;28;20474;-78
2023/05/13 11:36:42;;;;;;;7.40;6.80;;;17.80;99.90;;;;;;5043933;28;20475;-78
2023/05/13 11:39:14;;;;;;;8.20;7.40;;;17.50;99.90;;;;;;5036273;28;20485;-76
2023/05/13 11:41:44;;;;;;;7.60;6.80;;;17.40;99.90;;;;;;5035557;28;20447;-78
2023/05/13 11:44:16;;;;;;;6.73;6.10;;;17.40;99.90;;;;;;5053206;28;20505;-80
2023/05/13 11:46:53;;;;;;;8.43;7.67;;;17.00;99.90;;;;;;5047785;28;20464;-81
2023/05/13 11:49:37;;;;;;;8.50;7.70;;;17.20;99.90;;;;;;5049848;28;20556;-79
2023/05/13 11:52:06;;;;;;;9.50;8.60;;;17.40;99.90;;;;;;5038456;28;20938;-77
2023/05/13 11:54:41;;;;;;;8.50;7.80;;;17.50;99.90;;;;;;5042735;28;20501;-78
2023/05/13 11:57:21;;;;;;;8.50;7.37;;;17.10;99.90;;;;;;5052505;28;20502;-77
2023/05/13 11:59:58;;;;;;;8.43;7.47;;;16.40;99.90;;;;;;5051950;28;20481;-77
2023/05/13 12:02:27;;;;;;;7.57;6.87;;;16.80;99.90;;;;;;5051908;28;20460;-81
2023/05/13 12:04:56;;;;;;;7.50;6.90;;;17.20;99.90;;;;;;5050945;28;21006;-81
2023/05/13 12:07:24;;;;;;;7.90;7.20;;;17.50;99.90;;;;;;5049102;28;20454;-82
2023/05/13 12:09:51;;;;;;;7.60;7.00;;;17.80;99.90;;;;;;5043743;28;20468;-82
2023/05/13 12:12:19;;;;;;;7.17;6.00;;;18.00;99.90;;;;;;5045497;28;20512;-78
2023/05/13 12:14:49;;;;;;;6.47;5.93;;;17.90;99.90;;;;;;5045559;28;20463;-77
2023/05/13 12:17:16;;;;;;;7.40;6.70;;;17.70;99.90;;;;;;5043018;28;20466;-77
2023/05/13 12:20:05;;;;;;;7.47;6.87;;;17.50;99.90;;;;;;5043523;28;20494;-76
2023/05/13 12:22:33;;;;;;;6.37;5.87;;;17.50;99.90;;;;;;5041538;28;20481;-78
2023/05/13 12:25:02;;;;;;;7.10;6.30;;;17.70;99.90;;;;;;5041151;28;20885;-78
2023/05/13 12:27:29;;;;;;;6.90;6.20;;;18.20;99.90;;;;;;5039599;28;20468;-80
2023/05/13 12:29:56;;;;;;;6.97;6.40;;;18.50;99.90;;;;;;5038450;28;20484;-80
2023/05/13 12:32:25;;;;;;;7.50;6.80;;;18.60;99.90;;;;;;5042681;28;21118;-77
2023/05/13 12:34:52;;;;;;;6.93;6.50;;;18.70;99.90;;;;;;5052251;28;20990;-77
2023/05/13 12:37:25;;;;;;;8.27;7.67;;;18.50;99.90;;;;;;5037009;28;20948;-78
2023/05/13 12:40:09;;;;;;;6.20;5.67;;;18.40;99.90;;;;;;5038936;28;20879;-77
2023/05/13 12:42:37;;;;;;;7.60;6.90;;;18.20;99.90;;;;;;5044086;28;20467;-79
2023/05/13 12:45:05;;;;;;;8.67;6.77;;;18.40;99.90;;;;;;5042072;28;20485;-78
2023/05/13 12:47:47;;;;;;;7.23;6.50;;;17.70;99.90;;;;;;5042702;28;20517;-77
2023/05/13 12:50:16;;;;;;;8.73;7.97;;;17.00;99.90;;;;;;5037294;28;20490;-76
2023/05/13 12:52:44;;;;;;;8.10;7.40;;;16.70;99.90;;;;;;5035575;28;20499;-82
2023/05/13 12:55:12;;;;;;;9.33;8.27;;;16.50;99.90;;;;;;5044632;28;20508;-82
2023/05/13 12:57:41;;;;;;;10.10;7.63;;;16.20;99.90;;;;;;5044077;28;20460;-78
2023/05/13 13:00:09;;;;;;;8.00;7.20;;;16.20;99.90;;;;;;5036935;28;20528;-79